首页
METAR-TAF:

METAR-TAF

机场 :

Goldsboro / Seymour Johnson, 北卡罗来纳州, 美国

纬度: 35-20N, 经度: 077-58W, 海拔: 33米

当前天气观测

该预报发布于14分钟前的01:56 UTC
风速5节,风向南转西南
温度 27°C
湿度 79%
气压 1014 hPa
能見度: 16.1公里
天空无云

METAR: KGSB 220156Z AUTO 21005KT 10SM CLR 27/23 A2995 RMK AO2 SLP144 T02660230 $

时间: 22:10 (02:10 UTC)

预报

该预报发布于6小时和10分钟前的20:00 UTC
预报有效从21日的 20点(UTC)到 23日的 02点(UTC)
风速12节,风向南转西南,有时为18节阵风
能见度10公里或以上
散云层高于3500英尺
多云层高于15000英尺
附近有阵雨
短暂存在
从 22日的 06点(UTC)到 22日的 08点(UTC)
风速15节,风向南转西南,有时为25节阵风
能見度: 1600
多云层高于2000英尺, 积雨云.
雷暴, 大雨
成为
从 22日的 09点(UTC)到 22日的 10点(UTC)
风速3节,风向西南
能見度: 6000
多云层高于700英尺
阴天层高于1000英尺
轻雾
成为
从 22日的 14点(UTC)到 22日的 15点(UTC)
风速10节,风向西南,有时为15节阵风
能见度10公里或以上
散云层高于1700英尺
成为
从 22日的 17点(UTC)到 22日的 18点(UTC)
风速9节,风向西南
能见度10公里或以上
多云层高于3000英尺
成为
从 22日的 23点(UTC)到 22日的 24点(UTC)
风速10节,风向西,有时为15节阵风
能見度: 8000
多云层高于3000英尺
小阵雨

TAF: KGSB 212000Z 2120/2302 21012G18KT 9999 VCSH SCT035 BKN150 QNH2988INS TEMPO 2206/2208 21015G25KT 1600 +TSRA BKN020CB BECMG 2209/2210 22003KT 6000 BR BKN007 OVC010 QNH2987INS BECMG 2214/2215 23010G15KT 9999 NSW SCT017 QNH2983INS BECMG 2217/2218 22009KT 9999 BKN030 QNH2979INS BECMG 2223/2224 27010G15KT 8000 -SHRA BKN030 QNH2980INS TX31/2220Z TN23/2208Z

超过4000个机场的气象观测和天气预报(METAR&TAF报告)。

可查询的气象台以黄色和红色小点在地图上表示。

将鼠标移到小点上方,可查看气象台名称。

然后点击查看天气观测和预报。

如需切换地图:点击带黑十字的绿色按钮放大地图;点击带横线的绿色按钮缩小地图;或者点击绿色箭头查看邻近地区的地图。


METAR-TAF: